createdAt,value
2023-02-14T00:01:10.915Z,58.82
2023-02-14T00:03:37.945Z,58.32
2023-02-14T00:06:14.877Z,58.64
2023-02-14T00:08:44.512Z,58.59
2023-02-14T00:11:13.270Z,58.75
2023-02-14T00:14:00.415Z,58.95
2023-02-14T00:16:27.565Z,59.02
2023-02-14T00:19:03.430Z,59.44
2023-02-14T00:21:38.055Z,59.17
2023-02-14T00:24:10.894Z,59.43
2023-02-14T00:26:38.960Z,59.57
2023-02-14T00:29:07.819Z,59.59
2023-02-14T00:31:35.575Z,60.24
2023-02-14T00:34:04.151Z,60.06
2023-02-14T00:36:31.049Z,60.15
2023-02-14T00:38:58.059Z,59.87
2023-02-14T00:41:25.226Z,60.41
2023-02-14T00:43:53.695Z,60.46
2023-02-14T00:46:22.346Z,60.56
2023-02-14T00:48:49.549Z,60.20
2023-02-14T00:51:18.537Z,60.51
2023-02-14T00:53:47.382Z,60.40
2023-02-14T00:56:14.876Z,60.14
2023-02-14T00:58:43.645Z,59.92
2023-02-14T01:01:11.252Z,60.37
2023-02-14T01:03:38.622Z,60.99
2023-02-14T01:06:06.752Z,60.63
2023-02-14T01:08:34.032Z,60.33
2023-02-14T01:11:19.411Z,60.10
2023-02-14T01:13:48.366Z,60.17
2023-02-14T01:16:21.944Z,60.01
2023-02-14T01:18:49.821Z,59.88
2023-02-14T01:21:21.163Z,59.88
2023-02-14T01:23:51.069Z,59.49
2023-02-14T01:26:19.689Z,59.41
2023-02-14T01:28:47.252Z,59.39
2023-02-14T01:31:17.675Z,59.81
2023-02-14T01:33:46.260Z,60.00
2023-02-14T01:36:28.222Z,60.07
2023-02-14T01:39:09.072Z,59.91
2023-02-14T01:41:38.033Z,59.95
2023-02-14T01:44:33.552Z,60.49
2023-02-14T01:47:05.164Z,60.67
2023-02-14T01:49:38.503Z,60.38
2023-02-14T01:52:37.822Z,60.44
2023-02-14T01:55:10.964Z,60.42
2023-02-14T01:57:44.488Z,60.23
2023-02-14T02:00:31.460Z,60.89
2023-02-14T02:03:01.540Z,60.41
2023-02-14T02:05:48.836Z,60.21
2023-02-14T02:08:17.031Z,60.03
2023-02-14T02:10:44.623Z,59.87
2023-02-14T02:13:20.046Z,59.96
2023-02-14T02:16:08.056Z,60.43
2023-02-14T02:18:53.642Z,60.50
2023-02-14T02:21:20.456Z,60.35
2023-02-14T02:23:57.835Z,60.59
2023-02-14T02:26:48.855Z,60.95
2023-02-14T02:29:55.228Z,60.52
2023-02-14T02:32:28.196Z,61.80
2023-02-14T02:35:16.883Z,61.52
2023-02-14T02:37:51.849Z,62.04
2023-02-14T02:40:32.753Z,61.80
2023-02-14T02:43:30.726Z,61.98
2023-02-14T02:46:35.641Z,61.92
2023-02-14T02:49:14.458Z,62.09
2023-02-14T02:52:07.477Z,62.41
2023-02-14T02:54:43.205Z,63.59
2023-02-14T02:57:19.735Z,62.36
2023-02-14T02:59:47.844Z,63.21
2023-02-14T03:03:03.315Z,63.41
2023-02-14T03:05:33.604Z,63.03
2023-02-14T03:08:00.716Z,63.12
2023-02-14T03:10:32.307Z,62.79
2023-02-14T03:13:24.811Z,62.92
2023-02-14T03:15:51.760Z,63.94
2023-02-14T03:18:43.265Z,63.39
2023-02-14T03:21:37.425Z,63.29
2023-02-14T03:24:10.464Z,63.00
2023-02-14T03:26:48.281Z,63.10
2023-02-14T03:29:37.377Z,63.81
2023-02-14T03:32:07.946Z,63.24
2023-02-14T03:34:53.738Z,62.57
2023-02-14T03:37:34.329Z,62.34
2023-02-14T03:40:28.639Z,62.28
2023-02-14T03:43:01.625Z,62.19
2023-02-14T03:45:41.490Z,62.28
2023-02-14T03:48:13.427Z,61.80
2023-02-14T03:50:42.827Z,62.24
2023-02-14T03:53:11.915Z,61.92
2023-02-14T03:55:51.466Z,61.87
2023-02-14T03:58:24.829Z,62.54
2023-02-14T04:00:58.605Z,61.82
2023-02-14T04:03:30.069Z,62.22
2023-02-14T04:05:57.157Z,61.75
2023-02-14T04:08:26.875Z,61.86
2023-02-14T04:10:56.781Z,61.65
2023-02-14T04:13:23.934Z,61.06
2023-02-14T04:15:50.824Z,61.36
2023-02-14T04:18:36.414Z,61.69
2023-02-14T04:21:03.687Z,61.60
2023-02-14T04:23:30.599Z,61.88
2023-02-14T04:25:57.934Z,61.87
2023-02-14T04:28:25.748Z,62.25
2023-02-14T04:30:52.831Z,62.36
2023-02-14T04:33:19.775Z,62.56
2023-02-14T04:35:47.994Z,62.24
2023-02-14T04:38:14.778Z,62.76
2023-02-14T04:40:41.743Z,62.25
2023-02-14T04:43:08.772Z,62.30
2023-02-14T04:45:35.804Z,62.33
2023-02-14T04:48:02.786Z,62.07
2023-02-14T04:50:29.924Z,63.39
2023-02-14T04:52:56.921Z,62.81
2023-02-14T04:55:23.982Z,63.08
2023-02-14T04:57:50.932Z,62.93
2023-02-14T05:00:18.548Z,61.97
2023-02-14T05:02:45.659Z,62.56
2023-02-14T05:05:12.719Z,62.46
2023-02-14T05:07:39.800Z,62.80
2023-02-14T05:10:07.553Z,62.73
2023-02-14T05:12:35.031Z,63.41
2023-02-14T05:15:02.259Z,63.34
2023-02-14T05:17:29.740Z,62.93
2023-02-14T05:19:56.726Z,63.23
2023-02-14T05:22:23.696Z,63.14
2023-02-14T05:24:50.700Z,63.54
2023-02-14T05:27:17.709Z,63.37
2023-02-14T05:29:44.644Z,63.30
2023-02-14T05:32:11.613Z,63.96
2023-02-14T05:34:38.575Z,63.63
2023-02-14T05:37:05.681Z,63.60
2023-02-14T05:39:32.630Z,63.91
2023-02-14T05:41:59.656Z,63.56
2023-02-14T05:44:26.702Z,63.62
2023-02-14T05:46:55.050Z,63.41
2023-02-14T05:49:22.100Z,63.46
2023-02-14T05:51:49.038Z,63.31
2023-02-14T05:54:15.995Z,62.91
2023-02-14T05:56:42.974Z,63.15
2023-02-14T05:59:09.915Z,63.03
2023-02-14T06:01:36.918Z,62.93
2023-02-14T06:04:03.946Z,63.22
2023-02-14T06:06:30.963Z,63.08
2023-02-14T06:08:57.951Z,63.12
2023-02-14T06:11:24.875Z,63.39
2023-02-14T06:13:51.910Z,63.31
2023-02-14T06:16:18.895Z,63.06
2023-02-14T06:18:45.827Z,62.83
2023-02-14T06:21:13.411Z,62.83
2023-02-14T06:23:40.407Z,62.62
2023-02-14T06:26:07.495Z,62.53
2023-02-14T06:28:34.407Z,62.68
2023-02-14T06:31:01.615Z,62.56
2023-02-14T06:33:28.948Z,62.66
2023-02-14T06:35:55.953Z,63.08
2023-02-14T06:38:22.993Z,63.16
2023-02-14T06:40:49.947Z,63.59
2023-02-14T06:43:16.877Z,63.85
2023-02-14T06:45:45.146Z,63.75
2023-02-14T06:48:12.123Z,63.65
2023-02-14T06:50:39.095Z,63.54
2023-02-14T06:53:06.458Z,63.44
2023-02-14T06:55:33.433Z,62.90
2023-02-14T06:58:00.420Z,62.85
2023-02-14T07:00:27.528Z,62.54
2023-02-14T07:02:54.517Z,62.32
2023-02-14T07:05:22.162Z,62.49
2023-02-14T07:07:49.181Z,62.57
2023-02-14T07:10:16.323Z,62.73
2023-02-14T07:12:43.460Z,62.61
2023-02-14T07:15:12.806Z,63.03
2023-02-14T07:17:39.985Z,62.80
2023-02-14T07:20:09.374Z,62.89
2023-02-14T07:22:36.907Z,62.25
2023-02-14T07:25:04.922Z,62.26
2023-02-14T07:27:32.572Z,62.41
2023-02-14T07:29:59.733Z,61.98
2023-02-14T07:32:26.928Z,61.79
2023-02-14T07:34:54.331Z,61.95
2023-02-14T07:37:21.464Z,61.65
2023-02-14T07:39:48.506Z,61.76
2023-02-14T07:42:15.507Z,61.46
2023-02-14T07:44:46.794Z,61.37
2023-02-14T07:47:13.734Z,61.58
2023-02-14T07:49:40.763Z,61.66
2023-02-14T07:52:07.874Z,61.55
2023-02-14T07:54:35.374Z,61.70
2023-02-14T07:57:02.463Z,61.54
2023-02-14T07:59:29.389Z,61.45
2023-02-14T08:01:56.753Z,60.77
2023-02-14T08:04:26.355Z,60.90
2023-02-14T08:06:54.299Z,60.81
2023-02-14T08:09:27.724Z,60.85
2023-02-14T08:12:16.822Z,60.38
2023-02-14T08:14:44.982Z,60.49
2023-02-14T08:17:13.610Z,60.18
2023-02-14T08:19:41.158Z,59.87
2023-02-14T08:22:08.851Z,59.78
2023-02-14T08:24:35.869Z,60.15
2023-02-14T08:27:02.981Z,59.87
2023-02-14T08:29:30.068Z,59.85
2023-02-14T08:32:00.521Z,60.18
2023-02-14T08:34:27.670Z,59.79
2023-02-14T08:36:55.506Z,59.51
2023-02-14T08:39:22.743Z,59.16
2023-02-14T08:41:49.770Z,58.93
2023-02-14T08:44:16.825Z,58.68
2023-02-14T08:46:43.918Z,58.31
2023-02-14T08:49:11.430Z,58.34
2023-02-14T08:51:38.509Z,57.80
2023-02-14T08:54:05.564Z,57.85
2023-02-14T08:56:33.261Z,57.97
2023-02-14T08:59:00.329Z,57.39
2023-02-14T09:01:29.297Z,57.27
2023-02-14T09:03:57.021Z,56.37
2023-02-14T09:06:24.810Z,56.79
2023-02-14T09:08:51.997Z,56.95
2023-02-14T09:11:24.308Z,56.17
2023-02-14T09:13:56.139Z,56.58
2023-02-14T09:16:25.048Z,56.24
2023-02-14T09:18:53.650Z,55.28
2023-02-14T09:21:24.634Z,55.43
2023-02-14T09:23:52.440Z,54.74
2023-02-14T09:26:20.110Z,55.14
2023-02-14T09:28:47.897Z,54.66
2023-02-14T09:31:20.374Z,54.44
2023-02-14T09:33:49.083Z,53.98
2023-02-14T09:36:34.712Z,53.38
2023-02-14T09:39:01.710Z,53.65
2023-02-14T09:41:31.635Z,53.08
2023-02-14T09:44:27.110Z,53.08
2023-02-14T09:46:57.183Z,51.90
2023-02-14T09:49:34.360Z,51.42
2023-02-14T09:52:04.668Z,50.40
2023-02-14T09:54:34.950Z,50.38
2023-02-14T09:57:17.557Z,50.07
2023-02-14T10:00:00.520Z,50.28
2023-02-14T10:02:39.403Z,50.37
2023-02-14T10:05:06.660Z,48.96
2023-02-14T10:08:05.626Z,48.26
2023-02-14T10:10:41.862Z,47.08
2023-02-14T10:13:56.832Z,47.24
2023-02-14T10:16:37.850Z,46.46
2023-02-14T10:19:12.969Z,46.50
2023-02-14T10:22:17.283Z,45.71
2023-02-14T10:24:54.420Z,45.97
2023-02-14T10:27:44.870Z,45.69
2023-02-14T10:30:21.576Z,45.01
2023-02-14T10:32:56.329Z,44.37
2023-02-14T10:35:34.370Z,44.74
2023-02-14T10:38:27.822Z,42.98
2023-02-14T10:40:57.690Z,43.03
2023-02-14T10:43:39.332Z,43.40
2023-02-14T10:46:36.519Z,42.54
2023-02-14T10:49:25.714Z,42.42
2023-02-14T10:52:02.132Z,42.71
2023-02-14T10:54:39.274Z,41.96
2023-02-14T10:57:22.311Z,41.53
2023-02-14T11:00:00.865Z,41.25
2023-02-14T11:02:35.227Z,41.04
2023-02-14T11:05:04.765Z,41.39
2023-02-14T11:07:31.763Z,41.04
2023-02-14T11:09:58.823Z,40.92
2023-02-14T11:12:32.757Z,39.92
2023-02-14T11:15:19.585Z,40.14
2023-02-14T11:17:46.674Z,40.09
2023-02-14T11:20:22.945Z,38.64
2023-02-14T11:22:50.511Z,39.03
2023-02-14T11:25:31.585Z,38.91
2023-02-14T11:28:08.856Z,38.99
2023-02-14T11:30:48.034Z,38.83
2023-02-14T11:33:38.803Z,37.73
2023-02-14T11:36:12.354Z,37.85
2023-02-14T11:38:40.923Z,38.31
2023-02-14T11:41:11.771Z,38.16
2023-02-14T11:43:44.727Z,37.76
2023-02-14T11:46:24.237Z,37.47
2023-02-14T11:49:07.083Z,36.73
2023-02-14T11:51:42.073Z,36.65
2023-02-14T11:54:24.705Z,36.48
2023-02-14T11:57:01.619Z,36.67
2023-02-14T11:59:53.503Z,37.01
2023-02-14T12:13:28.004Z,36.97
2023-02-14T12:15:58.027Z,37.14
2023-02-14T12:18:56.276Z,36.56
2023-02-14T12:21:47.615Z,35.90
2023-02-14T12:24:28.356Z,35.48
2023-02-14T12:27:23.555Z,34.09
2023-02-14T12:30:01.931Z,34.29
2023-02-14T12:32:31.870Z,34.39
2023-02-14T12:35:27.823Z,33.96
2023-02-14T12:38:06.312Z,33.95
2023-02-14T12:41:06.131Z,32.41
2023-02-14T12:43:46.383Z,33.27
2023-02-14T12:46:32.142Z,32.76
2023-02-14T12:49:14.400Z,32.22
2023-02-14T12:52:02.280Z,31.61
2023-02-14T12:55:14.404Z,31.21
2023-02-14T12:57:50.451Z,31.46
2023-02-14T13:00:57.091Z,30.53
2023-02-14T13:03:27.003Z,30.50
2023-02-14T13:05:58.576Z,29.60
2023-02-14T13:08:42.746Z,29.25
2023-02-14T13:11:12.623Z,29.33
2023-02-14T13:13:47.925Z,28.39
2023-02-14T13:16:23.668Z,28.48
2023-02-14T13:18:58.251Z,28.23
2023-02-14T13:21:29.653Z,27.58
2023-02-14T13:24:13.224Z,26.49
2023-02-14T13:26:45.422Z,25.25
2023-02-14T13:29:19.595Z,24.47
2023-02-14T13:31:47.283Z,23.58
2023-02-14T13:34:16.943Z,22.56
2023-02-14T13:36:44.462Z,21.45
2023-02-14T13:39:25.561Z,21.23
2023-02-14T13:41:52.638Z,19.85
2023-02-14T13:44:47.870Z,20.63
2023-02-14T13:47:22.434Z,20.10
2023-02-14T13:49:55.007Z,19.02
2023-02-14T13:52:47.641Z,18.61
2023-02-14T13:55:26.287Z,18.28
2023-02-14T13:58:16.880Z,17.42
2023-02-14T14:00:48.265Z,16.99
2023-02-14T14:03:38.218Z,17.10
2023-02-14T14:06:10.984Z,17.12
2023-02-14T14:08:45.072Z,18.71
2023-02-14T14:11:21.157Z,19.54
2023-02-14T14:13:54.878Z,20.58
2023-02-14T14:16:28.250Z,22.08
2023-02-14T14:19:30.696Z,23.95
2023-02-14T14:22:04.038Z,25.18
2023-02-14T14:24:57.350Z,26.67
2023-02-14T14:27:29.491Z,28.07
2023-02-14T14:29:58.856Z,28.88
2023-02-14T14:32:34.732Z,29.77
2023-02-14T14:35:21.653Z,30.87
2023-02-14T14:37:56.892Z,31.17
2023-02-14T14:40:25.778Z,31.63
2023-02-14T14:42:54.361Z,32.65
2023-02-14T14:45:26.817Z,32.68
2023-02-14T14:47:57.838Z,33.44
2023-02-14T14:50:26.662Z,34.33
2023-02-14T14:52:57.459Z,34.69
2023-02-14T14:55:31.331Z,35.38
2023-02-14T14:58:01.117Z,35.85
2023-02-14T15:00:31.785Z,37.41
2023-02-14T15:03:22.308Z,36.87
2023-02-14T15:05:51.336Z,36.90
2023-02-14T15:08:33.098Z,38.69
2023-02-14T15:11:10.014Z,37.41
2023-02-14T15:13:55.198Z,38.20
2023-02-14T15:16:26.549Z,38.39
2023-02-14T15:19:16.362Z,39.57
2023-02-14T15:21:44.796Z,39.27
2023-02-14T15:24:16.269Z,39.19
2023-02-14T15:26:45.567Z,40.29
2023-02-14T15:29:25.875Z,40.46
2023-02-14T15:31:54.064Z,40.25
2023-02-14T15:34:23.875Z,40.87
2023-02-14T15:36:56.311Z,40.99
2023-02-14T15:39:32.650Z,41.30
2023-02-14T15:42:00.032Z,40.81
2023-02-14T15:44:27.000Z,41.23
2023-02-14T15:46:58.859Z,41.60
2023-02-14T15:49:41.505Z,41.75
2023-02-14T15:52:14.351Z,42.35
2023-02-14T15:54:47.606Z,42.52
2023-02-14T15:57:25.388Z,42.65
2023-02-14T15:59:52.710Z,43.00
2023-02-14T16:02:38.794Z,43.72
2023-02-14T16:05:20.763Z,43.97
2023-02-14T16:08:04.424Z,44.00
2023-02-14T16:10:40.596Z,44.18
2023-02-14T16:13:20.669Z,44.20
2023-02-14T16:16:01.312Z,45.13
2023-02-14T16:18:43.609Z,45.00
2023-02-14T16:21:28.617Z,45.01
2023-02-14T16:24:07.576Z,44.89
2023-02-14T16:26:38.353Z,45.48
2023-02-14T16:29:07.359Z,45.73
2023-02-14T16:31:34.804Z,45.96
2023-02-14T16:34:02.191Z,46.06
2023-02-14T16:36:33.725Z,46.86
2023-02-14T16:39:05.270Z,47.02
2023-02-14T16:41:34.377Z,47.08
2023-02-14T16:44:01.659Z,47.00
2023-02-14T16:46:35.276Z,47.49
2023-02-14T16:49:03.481Z,47.63
2023-02-14T16:51:35.567Z,48.00
2023-02-14T16:54:09.408Z,48.23
2023-02-14T16:56:52.947Z,48.63
2023-02-14T16:59:21.547Z,48.83
2023-02-14T17:01:50.318Z,49.01
2023-02-14T17:04:18.257Z,48.96
2023-02-14T17:06:54.050Z,49.33
2023-02-14T17:09:30.752Z,49.49
2023-02-14T17:12:04.119Z,49.21
2023-02-14T17:14:37.926Z,49.41
2023-02-14T17:17:08.698Z,49.77
2023-02-14T17:19:37.523Z,49.95
2023-02-14T17:22:06.256Z,48.92
2023-02-14T17:24:36.275Z,49.40
2023-02-14T17:27:05.572Z,50.05
2023-02-14T17:29:34.438Z,49.62
2023-02-14T17:32:02.980Z,50.21
2023-02-14T17:34:34.574Z,51.22
2023-02-14T17:37:03.103Z,51.08
2023-02-14T17:39:30.107Z,51.60
2023-02-14T17:41:57.131Z,51.43
2023-02-14T17:44:24.318Z,51.46
2023-02-14T17:46:51.444Z,51.36
2023-02-14T17:49:19.792Z,51.92
2023-02-14T17:51:50.027Z,52.25
2023-02-14T17:54:18.000Z,52.41
2023-02-14T17:56:45.533Z,52.12
2023-02-14T17:59:14.364Z,52.49
2023-02-14T18:01:43.472Z,52.10
2023-02-14T18:04:10.722Z,52.20
2023-02-14T18:06:38.913Z,52.29
2023-02-14T18:09:10.206Z,52.74
2023-02-14T18:11:40.271Z,52.75
2023-02-14T18:14:07.355Z,52.44
2023-02-14T18:16:41.924Z,52.83
2023-02-14T18:19:10.616Z,53.02
2023-02-14T18:21:40.573Z,52.78
2023-02-14T18:24:20.822Z,52.95
2023-02-14T18:26:50.680Z,52.96
2023-02-14T18:29:18.641Z,53.19
2023-02-14T18:31:47.168Z,53.48
2023-02-14T18:34:16.170Z,53.57
2023-02-14T18:36:46.423Z,53.37
2023-02-14T18:39:14.952Z,53.51
2023-02-14T18:41:43.123Z,53.97
2023-02-14T18:44:10.922Z,53.95
2023-02-14T18:46:38.963Z,54.18
2023-02-14T18:49:09.018Z,54.67
2023-02-14T18:51:40.076Z,54.57
2023-02-14T18:54:08.278Z,54.47
2023-02-14T18:56:44.537Z,54.54
2023-02-14T18:59:18.393Z,54.75
2023-02-14T19:01:47.056Z,54.75
2023-02-14T19:04:18.490Z,54.77
2023-02-14T19:06:47.492Z,54.90
2023-02-14T19:09:18.297Z,55.29
2023-02-14T19:11:47.086Z,55.18
2023-02-14T19:14:16.283Z,55.42
2023-02-14T19:16:51.373Z,56.28
2023-02-14T19:19:20.408Z,55.86
2023-02-14T19:21:48.573Z,56.00
2023-02-14T19:24:18.542Z,56.14
2023-02-14T19:26:46.828Z,55.87
2023-02-14T19:29:17.841Z,56.13
2023-02-14T19:31:49.942Z,56.15
2023-02-14T19:34:21.439Z,56.46
2023-02-14T19:36:51.699Z,56.52
2023-02-14T19:39:20.584Z,56.49
2023-02-14T19:41:48.835Z,56.97
2023-02-14T19:44:19.055Z,56.73
2023-02-14T19:46:48.689Z,56.55
2023-02-14T19:49:20.435Z,57.08
2023-02-14T19:51:52.724Z,56.99
2023-02-14T19:54:26.428Z,56.68
2023-02-14T19:56:57.216Z,56.65
2023-02-14T19:59:29.024Z,56.73
2023-02-14T20:01:58.847Z,56.99
2023-02-14T20:04:30.233Z,56.93
2023-02-14T20:06:58.659Z,57.14
2023-02-14T20:09:29.916Z,56.87
2023-02-14T20:12:00.297Z,57.05
2023-02-14T20:14:40.795Z,57.82
2023-02-14T20:17:18.959Z,57.75
2023-02-14T20:20:08.466Z,57.63
2023-02-14T20:22:38.444Z,57.77
2023-02-14T20:25:07.072Z,57.66
2023-02-14T20:27:34.391Z,58.24
2023-02-14T20:30:04.179Z,58.05
2023-02-14T20:32:32.060Z,58.18
2023-02-14T20:35:04.156Z,58.34
2023-02-14T20:37:33.525Z,58.00
2023-02-14T20:40:05.669Z,58.08
2023-02-14T20:42:35.053Z,57.71
2023-02-14T20:45:02.745Z,57.54
2023-02-14T20:47:32.760Z,57.78
2023-02-14T20:50:00.447Z,57.67
2023-02-14T20:52:29.100Z,57.41
2023-02-14T20:54:59.792Z,57.40
2023-02-14T20:57:30.043Z,57.55
2023-02-14T20:59:57.918Z,57.63
2023-02-14T21:02:30.506Z,57.56
2023-02-14T21:05:01.646Z,57.54
2023-02-14T21:07:32.378Z,57.82
2023-02-14T21:10:00.307Z,57.75
2023-02-14T21:12:30.376Z,57.45
2023-02-14T21:14:59.488Z,58.14
2023-02-14T21:17:29.254Z,57.89
2023-02-14T21:19:58.081Z,58.84
2023-02-14T21:22:27.017Z,58.92
2023-02-14T21:24:55.043Z,59.24
2023-02-14T21:27:24.140Z,58.76
2023-02-14T21:29:54.367Z,59.17
2023-02-14T21:32:23.241Z,59.54
2023-02-14T21:34:51.510Z,59.90
2023-02-14T21:37:20.825Z,60.13
2023-02-14T21:39:48.767Z,59.32
2023-02-14T21:42:19.168Z,59.02
2023-02-14T21:45:05.608Z,59.69
2023-02-14T21:47:39.499Z,59.34
2023-02-14T21:50:39.528Z,59.32
2023-02-14T21:53:09.981Z,59.58
2023-02-14T21:55:39.380Z,59.37
2023-02-14T21:58:08.226Z,59.54
2023-02-14T22:00:36.079Z,60.40
2023-02-14T22:03:04.939Z,60.35
2023-02-14T22:05:34.768Z,59.94
2023-02-14T22:08:05.048Z,59.53
2023-02-14T22:10:33.858Z,59.68
2023-02-14T22:13:01.675Z,59.74
2023-02-14T22:15:30.617Z,59.66
2023-02-14T22:17:58.803Z,59.76
2023-02-14T22:20:27.854Z,59.61
2023-02-14T22:22:55.125Z,59.74
2023-02-14T22:25:22.014Z,60.02
2023-02-14T22:27:48.947Z,60.02
2023-02-14T22:30:16.001Z,60.30
2023-02-14T22:32:42.914Z,60.09
2023-02-14T22:35:09.881Z,60.25
2023-02-14T22:37:36.946Z,60.48
2023-02-14T22:40:04.410Z,60.71
2023-02-14T22:42:32.080Z,59.93
2023-02-14T22:44:59.040Z,61.03
2023-02-14T22:47:26.071Z,61.00
2023-02-14T22:49:53.120Z,61.08
2023-02-14T22:52:20.123Z,61.22
2023-02-14T22:54:47.135Z,60.14
2023-02-14T22:57:14.221Z,60.33
2023-02-14T22:59:41.219Z,60.67
2023-02-14T23:02:09.904Z,60.50
2023-02-14T23:04:36.928Z,60.67
2023-02-14T23:07:03.854Z,61.05
2023-02-14T23:09:30.969Z,60.64
2023-02-14T23:11:57.969Z,60.85
2023-02-14T23:14:43.529Z,60.56
2023-02-14T23:17:15.129Z,60.67
2023-02-14T23:20:02.080Z,60.69
2023-02-14T23:22:41.082Z,60.37
2023-02-14T23:25:11.080Z,60.16
2023-02-14T23:27:43.704Z,60.25
2023-02-14T23:30:14.325Z,60.50
2023-02-14T23:32:41.601Z,60.29
2023-02-14T23:35:09.244Z,60.15
2023-02-14T23:37:36.424Z,60.34
2023-02-14T23:40:04.208Z,59.94
2023-02-14T23:42:31.173Z,60.20
2023-02-14T23:45:18.030Z,59.53
2023-02-14T23:47:45.153Z,59.57
2023-02-14T23:50:12.094Z,59.82
2023-02-14T23:52:41.981Z,60.02
2023-02-14T23:55:09.508Z,60.00
2023-02-14T23:57:37.223Z,59.90
